Key West, FL

07:13 EDT le 01 septembre 2014 (GMT -0400)
Big Coppitt Key Gulfside | Change Station
CLOSE
Current Station
Stations météorologiques personnelles
Location: Key West, FL
Altitude: 31 ft
Stations météo à proximité

Alt. 31 ft 24.60 °N, 81.67 °W | Updated 4 minutes ago

Partly Cloudy
Partiellement nuageux
81.9 ° F
Paraît 90 ° F
N
5.3
Vent Variable Vent de Est

Aujourd'hui
Haut(e) -- | Bas -- ° F
--% Risque de précip.
Hier
Haut(e) -- | Bas -- ° F
Precip. -- pouce
7:07 AM 7:44 PM
Lune montante, 40% visible
Pression 30.03 pouce
Visibilité 10.0 Miles terrestres
Nuages Peu 2500 ft
indice de chaleur 90 ° F
Point de rosée 77 ° F
Humidité 86%
Précipitations 0.04 pouce
Profondeur de la couche neigeuse Non disponible.
UV 0 sur 12
Pollen 5.20 sur 12
Qualité de l'air Non disponible.
Flu Activity Non disponible.
METAR KNQX 011053Z AUTO 10010KT 10SM FEW025 29/24 A3003 RMK AO2 SLP167 T02890244 $

More Conditions Fewer Conditions

Pression 30.03 pouce
Visibilité 10.0 Miles terrestres
Nuages Peu 2500 ft
indice de chaleur 90 ° F
Point de rosée 77 ° F
Humidité 86%
Précipitations 0.04 pouce
Profondeur de la couche neigeuse Non disponible.
UV 0 sur 12
Pollen 5.20 sur 12
Qualité de l'air Non disponible.
Flu Activity Non disponible.
METAR KNQX 011053Z AUTO 10010KT 10SM FEW025 29/24 A3003 RMK AO2 SLP167 T02890244 $

More Conditions Fewer Conditions

Nowcast | as of 6:48 am EDT on September 1, 2014

Scattered showers will trek west near 15 knots across the coastal waters surrounding...and the Florida Keys island chain through 800 am. Mariners should expect light to moderate rain...wind gusts at 20 to 25 knots...and reduced visibilities to 3 nm or less. A shower or two may cross the island chain at any point producing up to several hundredths of an inch of rainfall.

×

10-Day Weather Forecast

Almanac

Astronomie

Sep. 01, 2014 Lever Coucher
Temps réel 07:07 EDT 19:44 EDT
Crépuscule civil 06:44 EDT 20:07 EDT
Crépuscule nautique 06:17 EDT 20:35 EDT
Crépuscule astronomique 05:49 EDT 21:02 EDT
Lune 13:10 EDT Pas de coucher de lune
Durée de lumière visible 13h 23m
Longueur du jour
12h 37m
Tomorrow will be 1m 22s shorter.
Lune montante, 40% of the Moon is Illuminated
Aujourd'hui
Lune montante
Sep 2
Premier quartier
Sep 8
Pleine lune
Sep 15
Dernier quartier
Sep 24
Nouveau

Extrêmes aujourd'hui

State Highs State Lows

Community

WunderPhotos

Upload Photos

1,749,188 Photos téléchargées !

Nearby

Épaisseur de neige

Station Depth Altitude
Pas de nouvelles chutes de neige

Activité sismique

Ville Distance Mag. Time & Date
No recent earthquake activity has been reported nearby.
Minimum magnitude displayed is 2.5.

Températures des eaux côtières

Lieu Température
Key West, FL 87.1 ° F
Vaca Key, FL 87.1 ° F

Stations météo à proximité